createdAt,value
2018-06-28T00:01:44.548Z,17.79
2018-06-28T00:02:45.113Z,17.72
2018-06-28T00:03:45.658Z,17.72
2018-06-28T00:04:46.207Z,17.75
2018-06-28T00:05:46.763Z,17.79
2018-06-28T00:06:47.316Z,17.72
2018-06-28T00:07:47.873Z,17.71
2018-06-28T00:08:48.504Z,17.75
2018-06-28T00:09:48.975Z,17.63
2018-06-28T00:10:49.528Z,17.70
2018-06-28T00:11:50.074Z,17.68
2018-06-28T00:12:50.632Z,17.75
2018-06-28T00:13:51.177Z,17.70
2018-06-28T00:14:51.729Z,17.72
2018-06-28T00:15:52.276Z,17.77
2018-06-28T00:16:52.826Z,17.71
2018-06-28T00:17:53.379Z,17.72
2018-06-28T00:18:53.931Z,17.70
2018-06-28T00:19:54.481Z,17.64
2018-06-28T00:20:55.039Z,17.55
2018-06-28T00:21:55.595Z,17.55
2018-06-28T00:22:56.135Z,17.56
2018-06-28T00:23:56.684Z,17.56
2018-06-28T00:24:57.241Z,17.60
2018-06-28T00:25:57.785Z,17.63
2018-06-28T00:26:58.335Z,17.64
2018-06-28T00:27:58.878Z,17.63
2018-06-28T00:28:59.428Z,17.67
2018-06-28T00:29:59.972Z,17.60
2018-06-28T00:31:00.527Z,17.60
2018-06-28T00:32:01.079Z,17.59
2018-06-28T00:33:01.633Z,17.45
2018-06-28T00:34:02.185Z,17.49
2018-06-28T00:35:02.741Z,17.42
2018-06-28T00:36:03.287Z,17.36
2018-06-28T00:37:03.838Z,17.44
2018-06-28T00:38:04.385Z,17.41
2018-06-28T00:39:04.938Z,17.31
2018-06-28T00:40:05.486Z,17.30
2018-06-28T00:41:06.040Z,17.36
2018-06-28T00:42:06.598Z,17.36
2018-06-28T00:43:07.142Z,17.34
2018-06-28T00:44:07.698Z,17.33
2018-06-28T00:45:08.246Z,17.31
2018-06-28T00:46:08.801Z,17.21
2018-06-28T00:47:09.351Z,17.06
2018-06-28T00:48:09.893Z,17.01
2018-06-28T00:49:10.442Z,17.01
2018-06-28T00:50:10.998Z,17.00
2018-06-28T00:51:11.539Z,16.97
2018-06-28T00:52:12.098Z,17.01
2018-06-28T00:53:12.647Z,17.09
2018-06-28T00:54:13.196Z,17.04
2018-06-28T00:55:13.749Z,17.00
2018-06-28T00:56:14.304Z,17.01
2018-06-28T00:57:14.847Z,16.97
2018-06-28T00:58:15.395Z,16.97
2018-06-28T00:59:15.947Z,16.93
2018-06-28T01:00:16.497Z,16.98
2018-06-28T01:01:17.049Z,16.91
2018-06-28T01:02:17.596Z,16.87
2018-06-28T01:03:18.149Z,16.93
2018-06-28T01:04:18.701Z,16.97
2018-06-28T01:05:19.253Z,16.86
2018-06-28T01:06:19.798Z,16.94
2018-06-28T01:07:20.350Z,16.93
2018-06-28T01:08:20.894Z,16.83
2018-06-28T01:09:21.444Z,16.94
2018-06-28T01:10:22.016Z,16.86
2018-06-28T01:11:22.566Z,16.83
2018-06-28T01:12:23.113Z,16.79
2018-06-28T01:13:23.659Z,16.68
2018-06-28T01:14:24.213Z,16.66
2018-06-28T01:15:24.768Z,16.58
2018-06-28T01:16:25.316Z,16.61
2018-06-28T01:17:25.868Z,16.61
2018-06-28T01:18:26.413Z,16.63
2018-06-28T01:19:26.969Z,16.64
2018-06-28T01:20:27.516Z,16.66
2018-06-28T01:21:28.065Z,16.68
2018-06-28T01:22:28.613Z,16.58
2018-06-28T01:23:29.162Z,16.64
2018-06-28T01:24:29.710Z,16.61
2018-06-28T01:25:30.261Z,16.54
2018-06-28T01:26:30.815Z,16.49
2018-06-28T01:27:31.365Z,16.50
2018-06-28T01:28:31.917Z,16.43
2018-06-28T01:29:32.475Z,16.45
2018-06-28T01:30:33.018Z,16.45
2018-06-28T01:31:33.567Z,16.53
2018-06-28T01:32:34.124Z,16.53
2018-06-28T01:33:34.670Z,16.53
2018-06-28T01:34:35.216Z,16.49
2018-06-28T01:35:35.768Z,16.39
2018-06-28T01:36:36.318Z,16.43
2018-06-28T01:37:36.868Z,16.21
2018-06-28T01:38:37.421Z,16.39
2018-06-28T01:39:37.973Z,16.27
2018-06-28T01:40:38.523Z,16.33
2018-06-28T01:41:39.069Z,16.31
2018-06-28T01:42:39.618Z,16.25
2018-06-28T01:43:40.167Z,16.23
2018-06-28T01:44:40.716Z,16.23
2018-06-28T01:45:41.271Z,16.17
2018-06-28T01:46:41.852Z,16.12
2018-06-28T01:47:42.372Z,16.15
2018-06-28T01:48:42.921Z,16.12
2018-06-28T01:49:43.467Z,16.08
2018-06-28T01:50:44.017Z,16.13
2018-06-28T01:51:44.567Z,16.07
2018-06-28T01:52:45.129Z,16.02
2018-06-28T01:53:45.685Z,16.04
2018-06-28T01:54:46.230Z,16.01
2018-06-28T01:55:46.777Z,15.95
2018-06-28T01:56:47.333Z,15.98
2018-06-28T01:57:47.881Z,15.84
2018-06-28T01:58:48.430Z,15.82
2018-06-28T01:59:48.977Z,15.76
2018-06-28T02:00:49.533Z,15.82
2018-06-28T02:01:50.085Z,15.83
2018-06-28T02:02:50.649Z,15.76
2018-06-28T02:03:51.184Z,15.73
2018-06-28T02:04:51.728Z,15.68
2018-06-28T02:05:52.273Z,15.64
2018-06-28T02:06:52.824Z,15.59
2018-06-28T02:07:53.376Z,15.64
2018-06-28T02:08:53.926Z,15.64
2018-06-28T02:09:54.472Z,15.55
2018-06-28T02:10:55.030Z,15.57
2018-06-28T02:11:55.582Z,15.51
2018-06-28T02:12:56.129Z,15.47
2018-06-28T02:13:56.679Z,15.47
2018-06-28T02:14:57.232Z,15.40
2018-06-28T02:15:57.791Z,15.47
2018-06-28T02:16:58.357Z,15.42
2018-06-28T02:17:58.903Z,15.29
2018-06-28T02:18:59.449Z,15.34
2018-06-28T02:20:00.004Z,15.36
2018-06-28T02:21:00.554Z,15.34
2018-06-28T02:22:01.100Z,15.32
2018-06-28T02:23:01.649Z,15.40
2018-06-28T02:24:02.201Z,15.37
2018-06-28T02:25:02.756Z,15.28
2018-06-28T02:26:03.306Z,15.18
2018-06-28T02:27:03.858Z,15.22
2018-06-28T02:28:04.401Z,15.26
2018-06-28T02:29:04.957Z,15.17
2018-06-28T02:30:05.503Z,15.24
2018-06-28T02:31:06.051Z,15.22
2018-06-28T02:32:06.599Z,15.25
2018-06-28T02:33:07.144Z,15.22
2018-06-28T02:34:07.700Z,15.21
2018-06-28T02:35:08.247Z,15.14
2018-06-28T02:36:08.814Z,15.13
2018-06-28T02:37:09.346Z,15.18
2018-06-28T02:38:09.894Z,15.07
2018-06-28T02:39:10.445Z,15.07
2018-06-28T02:40:10.996Z,15.09
2018-06-28T02:41:11.545Z,15.04
2018-06-28T02:42:12.096Z,15.03
2018-06-28T02:43:12.646Z,14.99
2018-06-28T02:44:13.198Z,15.06
2018-06-28T02:45:13.747Z,14.94
2018-06-28T02:46:14.299Z,14.96
2018-06-28T02:47:14.853Z,14.88
2018-06-28T02:48:15.397Z,14.82
2018-06-28T02:49:15.950Z,14.82
2018-06-28T02:50:16.499Z,14.82
2018-06-28T02:51:17.052Z,14.81
2018-06-28T02:52:17.606Z,14.70
2018-06-28T02:53:18.159Z,14.82
2018-06-28T02:54:18.711Z,14.73
2018-06-28T02:55:19.262Z,14.69
2018-06-28T02:56:19.808Z,14.70
2018-06-28T02:57:20.357Z,14.72
2018-06-28T02:58:20.909Z,14.68
2018-06-28T02:59:21.461Z,14.72
2018-06-28T03:00:22.008Z,14.70
2018-06-28T03:01:22.560Z,14.70
2018-06-28T03:02:23.108Z,14.63
2018-06-28T03:03:23.656Z,14.69
2018-06-28T03:04:24.202Z,14.63
2018-06-28T03:05:24.749Z,14.63
2018-06-28T03:06:25.299Z,14.58
2018-06-28T03:07:25.841Z,14.62
2018-06-28T03:08:26.402Z,14.57
2018-06-28T03:09:26.952Z,14.55
2018-06-28T03:10:27.497Z,14.44
2018-06-28T03:11:28.051Z,14.51
2018-06-28T03:12:28.605Z,14.43
2018-06-28T03:13:29.155Z,14.39
2018-06-28T03:14:29.715Z,14.47
2018-06-28T03:15:30.263Z,14.52
2018-06-28T03:16:30.817Z,14.39
2018-06-28T03:17:31.369Z,14.37
2018-06-28T03:18:31.920Z,14.30
2018-06-28T03:19:32.474Z,14.33
2018-06-28T03:20:33.035Z,14.39
2018-06-28T03:21:33.587Z,14.26
2018-06-28T03:22:34.140Z,14.33
2018-06-28T03:23:34.694Z,14.33
2018-06-28T03:24:35.243Z,14.27
2018-06-28T03:25:35.795Z,14.35
2018-06-28T03:26:36.349Z,14.27
2018-06-28T03:27:36.901Z,14.21
2018-06-28T03:28:37.453Z,14.26
2018-06-28T03:29:38.014Z,14.19
2018-06-28T03:30:38.561Z,14.32
2018-06-28T03:31:39.111Z,14.15
2018-06-28T03:32:39.667Z,14.18
2018-06-28T03:33:40.216Z,14.14
2018-06-28T03:34:40.765Z,14.15
2018-06-28T03:35:41.316Z,14.15
2018-06-28T03:36:41.866Z,14.19
2018-06-28T03:37:42.490Z,14.19
2018-06-28T03:38:42.963Z,14.17
2018-06-28T03:39:43.514Z,14.18
2018-06-28T03:40:44.070Z,14.27
2018-06-28T03:41:44.623Z,14.11
2018-06-28T03:42:45.176Z,14.21
2018-06-28T03:43:45.729Z,14.21
2018-06-28T03:44:46.283Z,14.12
2018-06-28T03:45:46.891Z,14.10
2018-06-28T03:46:47.387Z,14.18
2018-06-28T03:47:47.935Z,14.18
2018-06-28T03:48:48.491Z,14.25
2018-06-28T03:49:49.046Z,14.26
2018-06-28T03:50:49.602Z,14.27
2018-06-28T03:51:50.157Z,14.29
2018-06-28T03:52:50.712Z,14.19
2018-06-28T03:53:51.259Z,14.32
2018-06-28T03:54:51.807Z,14.32
2018-06-28T03:55:52.363Z,14.32
2018-06-28T03:56:52.918Z,14.18
2018-06-28T03:57:53.476Z,14.25
2018-06-28T03:58:54.027Z,14.19
2018-06-28T03:59:54.576Z,14.29
2018-06-28T04:00:55.127Z,14.21
2018-06-28T04:01:55.681Z,14.36
2018-06-28T04:02:56.237Z,14.33
2018-06-28T04:03:56.793Z,14.36
2018-06-28T04:04:57.350Z,14.25
2018-06-28T04:05:57.901Z,14.29
2018-06-28T04:06:58.455Z,14.39
2018-06-28T04:07:59.005Z,14.39
2018-06-28T04:08:59.562Z,14.30
2018-06-28T04:10:00.114Z,14.47
2018-06-28T04:11:00.670Z,14.40
2018-06-28T04:12:01.225Z,14.47
2018-06-28T04:13:01.782Z,14.51
2018-06-28T04:14:02.337Z,14.54
2018-06-28T04:15:02.889Z,14.54
2018-06-28T04:16:03.440Z,14.50
2018-06-28T04:17:03.998Z,14.58
2018-06-28T04:18:04.551Z,14.60
2018-06-28T04:19:05.102Z,14.68
2018-06-28T04:20:05.658Z,14.72
2018-06-28T04:21:06.231Z,14.81
2018-06-28T04:22:06.769Z,14.84
2018-06-28T04:23:07.324Z,14.89
2018-06-28T04:24:07.879Z,14.89
2018-06-28T04:25:08.433Z,14.89
2018-06-28T04:26:08.993Z,15.00
2018-06-28T04:27:09.540Z,14.99
2018-06-28T04:28:10.094Z,15.03
2018-06-28T04:29:10.652Z,15.03
2018-06-28T04:30:11.206Z,15.04
2018-06-28T04:31:11.765Z,14.96
2018-06-28T04:32:12.319Z,15.03
2018-06-28T04:33:12.933Z,15.09
2018-06-28T04:34:13.435Z,15.21
2018-06-28T04:35:13.990Z,15.18
2018-06-28T04:36:14.543Z,15.21
2018-06-28T04:37:15.102Z,15.28
2018-06-28T04:38:15.652Z,15.13
2018-06-28T04:39:16.208Z,15.25
2018-06-28T04:40:16.765Z,15.34
2018-06-28T04:41:17.320Z,15.36
2018-06-28T04:42:17.878Z,15.37
2018-06-28T04:43:18.435Z,15.47
2018-06-28T04:44:18.985Z,15.49
2018-06-28T04:45:19.541Z,15.57
2018-06-28T04:46:20.092Z,15.73
2018-06-28T04:47:20.647Z,15.75
2018-06-28T04:48:21.199Z,15.73
2018-06-28T04:49:21.756Z,15.79
2018-06-28T04:50:22.313Z,15.91
2018-06-28T04:51:22.874Z,15.97
2018-06-28T04:52:23.431Z,16.02
2018-06-28T04:53:23.994Z,16.07
2018-06-28T04:54:24.546Z,16.16
2018-06-28T04:55:25.101Z,16.24
2018-06-28T04:56:25.656Z,16.20
2018-06-28T04:57:26.212Z,16.49
2018-06-28T04:58:26.767Z,17.06
2018-06-28T04:59:27.323Z,17.83
2018-06-28T05:00:27.881Z,18.65
2018-06-28T05:01:28.440Z,19.34
2018-06-28T05:02:28.999Z,19.81
2018-06-28T05:03:29.559Z,20.26
2018-06-28T05:04:30.123Z,20.50
2018-06-28T05:05:30.693Z,20.51
2018-06-28T05:06:31.247Z,20.40
2018-06-28T05:07:31.796Z,20.78
2018-06-28T05:08:32.369Z,21.21
2018-06-28T05:09:32.923Z,21.82
2018-06-28T05:10:33.488Z,22.26
2018-06-28T05:11:34.043Z,22.68
2018-06-28T05:12:34.611Z,23.03
2018-06-28T05:13:35.178Z,23.43
2018-06-28T05:14:35.742Z,23.76
2018-06-28T05:15:36.307Z,24.02
2018-06-28T05:16:36.875Z,24.17
2018-06-28T05:17:37.440Z,24.13
2018-06-28T05:18:38.068Z,24.13
2018-06-28T05:19:38.574Z,23.99
2018-06-28T05:20:39.140Z,23.53
2018-06-28T05:21:39.711Z,23.37
2018-06-28T05:22:40.301Z,23.41
2018-06-28T05:23:40.843Z,23.61
2018-06-28T05:24:41.410Z,23.51
2018-06-28T05:25:41.977Z,23.66
2018-06-28T05:26:42.545Z,24.06
2018-06-28T05:27:43.118Z,24.42
2018-06-28T05:28:43.677Z,24.89
2018-06-28T05:29:44.259Z,25.14
2018-06-28T05:30:44.814Z,25.28
2018-06-28T05:31:45.381Z,25.71
2018-06-28T05:32:45.953Z,25.84
2018-06-28T05:33:46.519Z,25.69
2018-06-28T05:34:47.088Z,25.32
2018-06-28T05:35:47.656Z,25.18
2018-06-28T05:36:48.221Z,25.01
2018-06-28T05:37:48.790Z,25.16
2018-06-28T05:38:49.358Z,25.56
2018-06-28T05:39:49.925Z,25.75
2018-06-28T05:40:50.500Z,26.10
2018-06-28T05:41:51.076Z,26.21
2018-06-28T05:42:51.644Z,25.99
2018-06-28T05:43:52.218Z,25.95
2018-06-28T05:44:52.789Z,26.13
2018-06-28T05:45:53.365Z,26.37
2018-06-28T05:46:53.934Z,26.41
2018-06-28T05:47:54.501Z,26.34
2018-06-28T05:48:55.080Z,26.56
2018-06-28T05:49:55.665Z,26.99
2018-06-28T05:50:56.253Z,27.15
2018-06-28T05:51:56.825Z,27.21
2018-06-28T05:52:57.398Z,27.61
2018-06-28T05:53:58.101Z,27.86
2018-06-28T05:54:58.569Z,27.98
2018-06-28T05:55:59.154Z,28.33
2018-06-28T05:56:59.929Z,28.60
2018-06-28T05:58:00.522Z,28.66
2018-06-28T05:59:01.115Z,28.89
2018-06-28T06:00:01.709Z,29.05
2018-06-28T06:01:02.287Z,29.32
2018-06-28T06:02:02.876Z,29.45
2018-06-28T06:03:03.450Z,29.67
2018-06-28T06:04:04.032Z,29.78
2018-06-28T06:05:04.627Z,30.00
2018-06-28T06:06:05.215Z,30.06
2018-06-28T06:07:05.849Z,29.96
2018-06-28T06:08:06.433Z,29.81
2018-06-28T06:09:07.010Z,29.71
2018-06-28T06:10:07.598Z,29.69
2018-06-28T06:11:08.183Z,29.53
2018-06-28T06:12:08.833Z,29.72
2018-06-28T06:13:09.396Z,30.13
2018-06-28T06:14:09.975Z,30.16
2018-06-28T06:15:10.554Z,30.18
2018-06-28T06:16:11.159Z,30.21
2018-06-28T06:17:11.783Z,30.40
2018-06-28T06:18:12.468Z,30.28
2018-06-28T06:19:13.099Z,30.35
2018-06-28T06:20:13.701Z,30.49
2018-06-28T06:21:14.258Z,30.38
2018-06-28T06:22:14.855Z,30.24
2018-06-28T06:23:15.440Z,30.05
2018-06-28T06:24:16.009Z,29.64
2018-06-28T06:25:16.581Z,29.32
2018-06-28T06:26:17.156Z,29.38
2018-06-28T06:27:17.734Z,29.74
2018-06-28T06:28:18.306Z,30.30
2018-06-28T06:29:18.884Z,30.51
2018-06-28T06:30:19.468Z,30.83
2018-06-28T06:31:20.090Z,30.83
2018-06-28T06:32:20.624Z,31.03
2018-06-28T06:33:21.206Z,31.25
2018-06-28T06:34:21.786Z,31.31
2018-06-28T06:35:22.374Z,31.15
2018-06-28T06:36:23.011Z,31.02
2018-06-28T06:37:23.535Z,31.13
2018-06-28T06:38:24.123Z,30.91
2018-06-28T06:39:24.692Z,30.91
2018-06-28T06:40:25.295Z,30.99
2018-06-28T06:41:25.898Z,31.03
2018-06-28T06:42:26.522Z,31.30
2018-06-28T06:43:27.158Z,31.10
2018-06-28T06:44:27.838Z,31.15
2018-06-28T06:45:28.613Z,31.17
2018-06-28T06:46:29.262Z,31.34
2018-06-28T06:47:29.787Z,31.67
2018-06-28T06:48:30.364Z,31.76
2018-06-28T06:49:31.002Z,31.64
2018-06-28T06:50:31.584Z,31.49
2018-06-28T06:51:32.166Z,31.47
2018-06-28T06:52:32.763Z,31.52
2018-06-28T06:53:33.341Z,31.46
2018-06-28T06:54:33.926Z,31.18
2018-06-28T06:55:34.498Z,31.27
2018-06-28T06:56:35.088Z,31.23
2018-06-28T06:57:35.688Z,31.34
2018-06-28T06:58:36.297Z,31.42
2018-06-28T06:59:36.886Z,31.58
2018-06-28T07:00:37.479Z,31.50
2018-06-28T07:01:38.072Z,31.24
2018-06-28T07:02:38.650Z,31.30
2018-06-28T07:03:39.224Z,31.28
2018-06-28T07:04:39.914Z,31.23
2018-06-28T07:05:40.460Z,31.43
2018-06-28T07:06:41.035Z,31.50
2018-06-28T07:07:41.618Z,31.84
2018-06-28T07:08:42.216Z,31.79
2018-06-28T07:09:42.799Z,31.93
2018-06-28T07:10:43.379Z,32.03
2018-06-28T07:11:43.970Z,32.03
2018-06-28T07:12:44.544Z,32.02
2018-06-28T07:13:45.115Z,32.18
2018-06-28T07:14:45.702Z,32.30
2018-06-28T07:15:46.439Z,32.51
2018-06-28T07:16:46.861Z,32.48
2018-06-28T07:17:47.442Z,32.49
2018-06-28T07:18:48.024Z,32.61
2018-06-28T07:19:48.611Z,32.86
2018-06-28T07:20:49.204Z,33.20
2018-06-28T07:21:49.778Z,33.14
2018-06-28T07:22:50.423Z,33.37
2018-06-28T07:23:50.977Z,33.27
2018-06-28T07:24:51.684Z,33.13
2018-06-28T07:25:52.133Z,32.99
2018-06-28T07:26:52.753Z,33.00
2018-06-28T07:27:53.392Z,33.00
2018-06-28T07:28:54.012Z,33.20
2018-06-28T07:29:54.593Z,32.93
2018-06-28T07:30:55.206Z,33.33
2018-06-28T07:31:55.837Z,33.45
2018-06-28T07:32:56.464Z,33.42
2018-06-28T07:33:57.084Z,33.52
2018-06-28T07:34:57.658Z,33.18
2018-06-28T07:35:58.347Z,33.07
2018-06-28T07:36:58.955Z,33.45
2018-06-28T07:37:59.584Z,33.42
2018-06-28T07:39:00.178Z,33.53
2018-06-28T07:40:00.804Z,33.52
2018-06-28T07:41:01.412Z,33.43
2018-06-28T07:42:02.025Z,33.67
2018-06-28T07:43:02.660Z,33.53
2018-06-28T07:44:03.250Z,33.48
2018-06-28T07:45:03.848Z,33.43
2018-06-28T07:46:04.464Z,33.14
2018-06-28T07:47:05.054Z,33.08
2018-06-28T07:48:05.632Z,33.11
2018-06-28T07:49:06.280Z,33.38
2018-06-28T07:50:06.906Z,33.43
2018-06-28T07:51:07.460Z,33.52
2018-06-28T07:52:08.040Z,33.90
2018-06-28T07:53:08.626Z,33.46
2018-06-28T07:54:09.345Z,33.17
2018-06-28T07:55:09.961Z,32.33
2018-06-28T07:56:10.584Z,32.02
2018-06-28T07:57:11.156Z,31.82
2018-06-28T07:58:11.749Z,31.99
2018-06-28T07:59:12.350Z,32.19
2018-06-28T08:00:13.936Z,32.17
2018-06-28T08:01:14.515Z,32.07
2018-06-28T08:02:15.158Z,32.17
2018-06-28T08:03:15.760Z,31.73
2018-06-28T08:04:16.362Z,31.57
2018-06-28T08:05:16.994Z,31.30
2018-06-28T08:06:17.597Z,31.57
2018-06-28T08:07:18.187Z,31.55
2018-06-28T08:08:18.823Z,31.69
2018-06-28T08:09:19.470Z,31.84
2018-06-28T08:10:20.163Z,31.62
2018-06-28T08:11:20.850Z,31.61
2018-06-28T08:12:21.469Z,31.93
2018-06-28T08:13:22.113Z,32.06
2018-06-28T08:14:22.746Z,32.14
2018-06-28T08:15:23.404Z,32.32
2018-06-28T08:16:24.124Z,32.15
2018-06-28T08:17:24.766Z,32.10
2018-06-28T08:18:25.380Z,32.03
2018-06-28T08:19:26.327Z,31.58
2018-06-28T08:20:27.001Z,31.62
2018-06-28T08:21:27.697Z,31.97
2018-06-28T08:22:28.369Z,31.69
2018-06-28T08:23:28.962Z,32.00
2018-06-28T08:24:29.693Z,32.19
2018-06-28T08:25:30.371Z,32.39
2018-06-28T08:26:31.050Z,32.67
2018-06-28T08:27:31.702Z,32.59
2018-06-28T08:28:32.372Z,32.67
2018-06-28T08:29:33.058Z,32.49
2018-06-28T08:30:33.718Z,32.40
2018-06-28T08:31:34.369Z,32.56
2018-06-28T08:32:35.004Z,32.88
2018-06-28T08:33:35.706Z,32.66
2018-06-28T08:34:36.330Z,32.40
2018-06-28T08:35:36.994Z,32.14
2018-06-28T08:36:37.663Z,31.96
2018-06-28T08:37:38.420Z,32.00
2018-06-28T08:38:39.166Z,31.99
2018-06-28T08:39:39.911Z,32.11
2018-06-28T08:40:40.676Z,32.03
2018-06-28T08:41:41.340Z,32.02
2018-06-28T08:42:41.973Z,31.96
2018-06-28T08:43:42.675Z,31.76
2018-06-28T08:44:43.358Z,31.50
2018-06-28T08:45:44.021Z,31.25
2018-06-28T08:46:44.755Z,31.34
2018-06-28T08:47:45.434Z,31.01
2018-06-28T08:48:46.090Z,31.03
2018-06-28T08:49:46.747Z,31.17
2018-06-28T08:50:47.417Z,31.09
2018-06-28T08:51:48.074Z,30.90
2018-06-28T08:52:48.714Z,30.86
2018-06-28T08:53:49.360Z,30.99
2018-06-28T08:54:50.048Z,31.21
2018-06-28T08:55:50.666Z,30.99
2018-06-28T08:56:51.315Z,31.10
2018-06-28T08:57:51.969Z,30.88
2018-06-28T08:58:52.591Z,30.99
2018-06-28T08:59:53.191Z,31.10
2018-06-28T09:00:53.778Z,30.91
2018-06-28T09:01:54.408Z,30.81
2018-06-28T09:02:54.996Z,31.21
2018-06-28T09:03:55.584Z,31.49
2018-06-28T09:04:56.189Z,31.47
2018-06-28T09:05:56.812Z,31.34
2018-06-28T09:06:57.442Z,31.54
2018-06-28T09:07:57.998Z,31.60
2018-06-28T09:08:58.596Z,31.67
2018-06-28T09:09:59.183Z,31.74
2018-06-28T09:10:59.754Z,31.90
2018-06-28T09:12:00.346Z,31.80
2018-06-28T09:13:00.949Z,32.05
2018-06-28T09:14:01.571Z,31.88
2018-06-28T09:15:02.186Z,31.87
2018-06-28T09:16:02.819Z,32.14
2018-06-28T09:17:03.439Z,31.88
2018-06-28T09:18:04.011Z,31.62
2018-06-28T09:19:04.642Z,31.45
2018-06-28T09:20:05.237Z,31.25
2018-06-28T09:21:05.833Z,31.42
2018-06-28T09:22:06.454Z,31.54
2018-06-28T09:23:07.090Z,31.73
2018-06-28T09:24:07.646Z,32.17
2018-06-28T09:25:08.266Z,32.37
2018-06-28T09:26:08.892Z,32.05
2018-06-28T09:27:09.507Z,31.71
2018-06-28T09:28:10.082Z,31.57
2018-06-28T09:29:10.692Z,31.96
2018-06-28T09:30:11.344Z,31.99
2018-06-28T09:31:11.985Z,32.44
2018-06-28T09:32:12.595Z,32.49
2018-06-28T09:33:13.191Z,32.41
2018-06-28T09:34:13.801Z,32.62
2018-06-28T09:35:14.423Z,32.91
2018-06-28T09:36:15.023Z,32.78
2018-06-28T09:37:15.606Z,32.83
2018-06-28T09:38:16.227Z,32.86
2018-06-28T09:39:16.833Z,32.18
2018-06-28T09:40:17.452Z,32.18
2018-06-28T09:41:18.089Z,32.06
2018-06-28T09:42:18.720Z,32.03
2018-06-28T09:43:19.456Z,31.84
2018-06-28T09:44:20.057Z,31.97
2018-06-28T09:45:20.764Z,32.18
2018-06-28T09:46:21.462Z,32.41
2018-06-28T09:47:22.159Z,32.02
2018-06-28T09:48:22.802Z,31.84
2018-06-28T09:49:23.394Z,31.58
2018-06-28T09:50:24.055Z,31.27
2018-06-28T09:51:24.677Z,31.27
2018-06-28T09:52:25.334Z,31.25
2018-06-28T09:53:26.022Z,31.12
2018-06-28T09:54:26.710Z,31.12
2018-06-28T09:55:27.859Z,31.09
2018-06-28T09:56:28.460Z,31.20
2018-06-28T09:57:29.151Z,31.27
2018-06-28T09:58:29.827Z,30.84
2018-06-28T09:59:30.718Z,30.62
2018-06-28T10:00:31.595Z,30.88
2018-06-28T10:01:32.123Z,30.88
2018-06-28T10:02:32.880Z,30.69
2018-06-28T10:03:33.506Z,30.80
2018-06-28T10:04:34.188Z,31.10
2018-06-28T10:05:34.878Z,30.86
2018-06-28T10:06:35.564Z,30.73
2018-06-28T10:07:36.215Z,30.84
2018-06-28T10:08:36.856Z,30.84
2018-06-28T10:09:37.458Z,30.97
2018-06-28T10:10:38.060Z,30.91
2018-06-28T10:11:38.772Z,30.87
2018-06-28T10:12:39.440Z,31.12
2018-06-28T10:13:40.097Z,31.23
2018-06-28T10:14:40.795Z,31.05
2018-06-28T10:15:41.372Z,31.21
2018-06-28T10:16:42.029Z,31.45
2018-06-28T10:17:42.660Z,31.64
2018-06-28T10:18:43.310Z,31.87
2018-06-28T10:19:43.984Z,31.69
2018-06-28T10:20:44.728Z,31.50
2018-06-28T10:21:45.549Z,31.74
2018-06-28T10:22:46.299Z,32.06
2018-06-28T10:23:47.666Z,32.19
2018-06-28T10:24:48.478Z,32.19
2018-06-28T10:25:49.292Z,32.06
2018-06-28T10:26:50.015Z,32.02
2018-06-28T10:27:50.784Z,32.12
2018-06-28T10:28:51.531Z,31.80
2018-06-28T10:29:52.312Z,32.02
2018-06-28T10:30:53.112Z,31.64
2018-06-28T10:31:53.825Z,31.92
2018-06-28T10:32:54.522Z,32.33
2018-06-28T10:33:55.324Z,32.66
2018-06-28T10:34:56.117Z,32.43
2018-06-28T10:35:57.321Z,32.15
2018-06-28T10:36:58.027Z,31.99
2018-06-28T10:37:58.777Z,32.18
2018-06-28T10:38:59.476Z,32.21
2018-06-28T10:40:00.166Z,31.95
2018-06-28T10:41:00.871Z,31.58
2018-06-28T10:42:01.428Z,31.62
2018-06-28T10:43:02.052Z,31.60
2018-06-28T10:44:02.764Z,31.85
2018-06-28T10:45:03.442Z,31.93
2018-06-28T10:46:04.182Z,32.29
2018-06-28T10:47:04.924Z,32.62
2018-06-28T10:48:05.696Z,32.83
2018-06-28T10:49:06.343Z,32.63
2018-06-28T10:50:06.955Z,32.52
2018-06-28T10:51:07.615Z,32.67
2018-06-28T10:52:08.273Z,32.43
2018-06-28T10:53:08.928Z,32.30
2018-06-28T10:54:09.657Z,32.32
2018-06-28T10:55:10.362Z,32.24
2018-06-28T10:56:11.117Z,32.44
2018-06-28T10:57:11.798Z,32.19
2018-06-28T10:58:12.553Z,32.22
2018-06-28T10:59:13.240Z,32.47
2018-06-28T11:00:13.896Z,32.30
2018-06-28T11:01:14.618Z,32.15
2018-06-28T11:02:15.293Z,32.30
2018-06-28T11:03:15.925Z,32.44
2018-06-28T11:04:16.559Z,32.37
2018-06-28T11:05:17.172Z,32.12
2018-06-28T11:06:17.788Z,32.12
2018-06-28T11:07:18.402Z,31.90
2018-06-28T11:08:19.046Z,31.85
2018-06-28T11:09:19.674Z,31.46
2018-06-28T11:10:20.316Z,31.08
2018-06-28T11:11:20.923Z,30.69
2018-06-28T11:12:21.578Z,30.84
2018-06-28T11:13:22.214Z,31.34
2018-06-28T11:14:22.863Z,31.85
2018-06-28T11:15:23.527Z,32.03
2018-06-28T11:16:24.214Z,32.05
2018-06-28T11:17:24.875Z,32.52
2018-06-28T11:18:25.483Z,32.77
2018-06-28T11:19:26.132Z,33.00
2018-06-28T11:20:27.314Z,33.05
2018-06-28T11:21:28.010Z,32.69
2018-06-28T11:22:28.728Z,32.56
2018-06-28T11:23:29.425Z,32.58
2018-06-28T11:24:30.025Z,32.41
2018-06-28T11:25:30.666Z,32.78
2018-06-28T11:26:31.297Z,32.93
2018-06-28T11:27:31.873Z,32.48
2018-06-28T11:28:32.491Z,31.96
2018-06-28T11:29:33.124Z,32.27
2018-06-28T11:30:33.813Z,32.63
2018-06-28T11:31:34.522Z,32.76
2018-06-28T11:32:35.135Z,32.96
2018-06-28T11:33:35.737Z,33.00
2018-06-28T11:34:36.368Z,32.91
2018-06-28T11:35:36.995Z,33.10
2018-06-28T11:36:37.629Z,33.46
2018-06-28T11:37:38.241Z,33.48
2018-06-28T11:38:38.878Z,33.43
2018-06-28T11:39:39.548Z,33.55
2018-06-28T11:40:40.240Z,33.83
2018-06-28T11:41:41.065Z,33.89
2018-06-28T11:42:41.824Z,34.01
2018-06-28T11:43:43.104Z,33.97
2018-06-28T11:44:43.780Z,33.72
2018-06-28T11:45:44.616Z,33.56
2018-06-28T11:46:45.449Z,33.36
2018-06-28T11:47:46.274Z,33.46
2018-06-28T11:48:46.997Z,33.67
2018-06-28T11:49:47.826Z,33.90
2018-06-28T11:50:48.668Z,33.67
2018-06-28T11:51:49.488Z,33.72
2018-06-28T11:52:50.310Z,33.48
2018-06-28T11:53:51.120Z,33.80
2018-06-28T11:54:51.926Z,34.04
2018-06-28T11:55:52.751Z,33.98
2018-06-28T11:56:53.563Z,33.60
2018-06-28T11:57:54.623Z,33.43
2018-06-28T11:58:55.423Z,33.37
2018-06-28T11:59:56.182Z,33.14
2018-06-28T12:00:56.972Z,33.42
2018-06-28T12:01:57.770Z,33.27
2018-06-28T12:02:58.670Z,33.33
2018-06-28T12:03:59.380Z,33.50
2018-06-28T12:05:00.190Z,33.86
2018-06-28T12:06:01.017Z,33.80
2018-06-28T12:07:01.808Z,33.49
2018-06-28T12:08:02.648Z,32.98
2018-06-28T12:09:03.494Z,32.86
2018-06-28T12:10:04.304Z,32.76
2018-06-28T12:11:05.122Z,32.88
2018-06-28T12:12:05.919Z,32.93
2018-06-28T12:13:06.737Z,32.74
2018-06-28T12:14:07.532Z,32.89
2018-06-28T12:15:08.574Z,32.99
2018-06-28T12:16:09.392Z,33.20
2018-06-28T12:17:10.660Z,33.45
2018-06-28T12:18:11.393Z,33.60
2018-06-28T12:19:12.220Z,33.70
2018-06-28T12:20:13.008Z,33.67
2018-06-28T12:21:13.783Z,33.38
2018-06-28T12:22:14.618Z,33.26
2018-06-28T12:23:15.291Z,33.37
2018-06-28T12:24:16.081Z,33.61
2018-06-28T12:25:16.890Z,33.80
2018-06-28T12:26:17.704Z,34.04
2018-06-28T12:27:18.509Z,34.23
2018-06-28T12:28:19.279Z,34.13
2018-06-28T12:29:20.049Z,34.26
2018-06-28T12:30:20.872Z,34.20
2018-06-28T12:31:21.688Z,34.20
2018-06-28T12:32:22.507Z,34.36
2018-06-28T12:33:23.306Z,34.26
2018-06-28T12:34:24.081Z,34.11
2018-06-28T12:35:24.820Z,33.97
2018-06-28T12:36:25.606Z,33.46
2018-06-28T12:37:26.425Z,33.20
2018-06-28T12:38:27.220Z,33.27
2018-06-28T12:39:28.001Z,33.11
2018-06-28T12:40:28.778Z,33.42
2018-06-28T12:41:29.472Z,33.55
2018-06-28T12:42:30.203Z,33.64
2018-06-28T12:43:30.941Z,33.43
2018-06-28T12:44:31.707Z,33.82
2018-06-28T12:45:32.487Z,34.23
2018-06-28T12:46:33.282Z,34.39
2018-06-28T12:47:33.980Z,34.73
2018-06-28T12:48:34.734Z,34.96
2018-06-28T12:49:35.464Z,35.02
2018-06-28T12:50:36.215Z,34.74
2018-06-28T12:51:37.005Z,34.30
2018-06-28T12:52:37.729Z,34.23
2018-06-28T12:53:38.505Z,34.17
2018-06-28T12:54:39.251Z,34.21
2018-06-28T12:55:39.927Z,34.53
2018-06-28T12:56:40.691Z,34.77
2018-06-28T12:57:41.486Z,34.70
2018-06-28T12:58:42.212Z,34.71
2018-06-28T12:59:43.010Z,34.88
2018-06-28T13:00:43.646Z,34.86
2018-06-28T13:01:44.224Z,35.23